sensor_id;sensor_type;location;lat;lon;timestamp;pressure;altitude;pressure_sealevel;temperature;humidity
30744;BME280;17486;46.738;7.622;2023-05-21T00:02:10;94788.44;;;14.09;64.90
30744;BME280;17486;46.738;7.622;2023-05-21T00:04:39;94800.34;;;14.13;64.75
30744;BME280;17486;46.738;7.622;2023-05-21T00:07:07;94815.19;;;14.25;64.66
30744;BME280;17486;46.738;7.622;2023-05-21T00:09:33;94788.56;;;14.07;64.68
30744;BME280;17486;46.738;7.622;2023-05-21T00:11:59;94816.34;;;14.21;64.73
30744;BME280;17486;46.738;7.622;2023-05-21T00:14:25;94775.91;;;14.01;64.54
30744;BME280;17486;46.738;7.622;2023-05-21T00:16:50;94794.06;;;14.16;64.77
30744;BME280;17486;46.738;7.622;2023-05-21T00:19:16;94784.03;;;14.09;64.46
30744;BME280;17486;46.738;7.622;2023-05-21T00:21:41;94814.22;;;14.26;64.81
30744;BME280;17486;46.738;7.622;2023-05-21T00:24:08;94811.72;;;14.25;64.68
30744;BME280;17486;46.738;7.622;2023-05-21T00:26:33;94781.22;;;14.13;64.59
30744;BME280;17486;46.738;7.622;2023-05-21T00:28:59;94793.63;;;14.22;64.58
30744;BME280;17486;46.738;7.622;2023-05-21T00:31:24;94797.69;;;14.26;64.91
30744;BME280;17486;46.738;7.622;2023-05-21T00:33:50;94804.50;;;14.29;64.65
30744;BME280;17486;46.738;7.622;2023-05-21T00:36:15;94787.97;;;14.28;64.62
30744;BME280;17486;46.738;7.622;2023-05-21T00:38:42;94797.56;;;14.27;64.52
30744;BME280;17486;46.738;7.622;2023-05-21T00:41:09;94791.41;;;14.29;64.37
30744;BME280;17486;46.738;7.622;2023-05-21T00:43:35;94767.19;;;14.14;64.55
30744;BME280;17486;46.738;7.622;2023-05-21T00:46:05;94793.19;;;14.28;64.67
30744;BME280;17486;46.738;7.622;2023-05-21T00:48:31;94788.91;;;14.27;64.38
30744;BME280;17486;46.738;7.622;2023-05-21T00:50:56;94786.19;;;14.29;64.50
30744;BME280;17486;46.738;7.622;2023-05-21T00:53:21;94773.75;;;14.19;64.60
30744;BME280;17486;46.738;7.622;2023-05-21T00:55:47;94780.16;;;14.15;64.95
30744;BME280;17486;46.738;7.622;2023-05-21T00:58:14;94780.69;;;14.07;64.90
30744;BME280;17486;46.738;7.622;2023-05-21T01:00:42;94769.44;;;13.94;65.13
30744;BME280;17486;46.738;7.622;2023-05-21T01:03:07;94762.16;;;13.86;65.18
30744;BME280;17486;46.738;7.622;2023-05-21T01:05:35;94777.47;;;14.04;65.19
30744;BME280;17486;46.738;7.622;2023-05-21T01:08:01;94784.25;;;14.06;65.56
30744;BME280;17486;46.738;7.622;2023-05-21T01:10:27;94779.97;;;14.05;65.31
30744;BME280;17486;46.738;7.622;2023-05-21T01:12:54;94780.94;;;14.04;64.94
30744;BME280;17486;46.738;7.622;2023-05-21T01:15:21;94774.22;;;14.00;65.25
30744;BME280;17486;46.738;7.622;2023-05-21T01:17:47;94772.47;;;14.01;65.12
30744;BME280;17486;46.738;7.622;2023-05-21T01:20:14;94772.56;;;13.99;65.23
30744;BME280;17486;46.738;7.622;2023-05-21T01:22:50;94770.91;;;13.98;65.33
30744;BME280;17486;46.738;7.622;2023-05-21T01:25:16;94758.38;;;13.90;65.36
30744;BME280;17486;46.738;7.622;2023-05-21T01:27:41;94775.91;;;14.01;65.23
30744;BME280;17486;46.738;7.622;2023-05-21T01:30:07;94747.09;;;13.90;65.10
30744;BME280;17486;46.738;7.622;2023-05-21T01:35:08;94766.59;;;13.97;65.45
30744;BME280;17486;46.738;7.622;2023-05-21T01:37:45;94774.34;;;13.99;65.11
30744;BME280;17486;46.738;7.622;2023-05-21T01:40:33;94746.88;;;13.80;65.10
30744;BME280;17486;46.738;7.622;2023-05-21T01:43:00;94761.91;;;13.89;65.10
30744;BME280;17486;46.738;7.622;2023-05-21T01:45:30;94763.59;;;13.90;64.95
30744;BME280;17486;46.738;7.622;2023-05-21T01:47:56;94765.97;;;13.93;64.88
30744;BME280;17486;46.738;7.622;2023-05-21T01:50:23;94769.66;;;13.91;64.85
30744;BME280;17486;46.738;7.622;2023-05-21T01:52:51;94760.47;;;13.85;65.21
30744;BME280;17486;46.738;7.622;2023-05-21T01:55:18;94762.97;;;13.87;65.28
30744;BME280;17486;46.738;7.622;2023-05-21T01:57:43;94740.31;;;13.74;65.19
30744;BME280;17486;46.738;7.622;2023-05-21T02:00:10;94759.84;;;13.82;65.21
30744;BME280;17486;46.738;7.622;2023-05-21T02:02:36;94766.97;;;13.80;65.16
30744;BME280;17486;46.738;7.622;2023-05-21T02:05:01;94765.84;;;13.71;65.60
30744;BME280;17486;46.738;7.622;2023-05-21T02:07:27;94767.94;;;13.66;65.54
30744;BME280;17486;46.738;7.622;2023-05-21T02:09:56;94765.44;;;13.64;65.84
30744;BME280;17486;46.738;7.622;2023-05-21T02:12:22;94761.13;;;13.63;65.86
30744;BME280;17486;46.738;7.622;2023-05-21T02:14:47;94752.66;;;13.59;65.98
30744;BME280;17486;46.738;7.622;2023-05-21T02:17:14;94747.97;;;13.52;65.73
30744;BME280;17486;46.738;7.622;2023-05-21T02:19:41;94739.41;;;13.50;65.91
30744;BME280;17486;46.738;7.622;2023-05-21T02:22:09;94762.41;;;13.70;65.91
30744;BME280;17486;46.738;7.622;2023-05-21T02:24:35;94749.75;;;13.64;65.84
30744;BME280;17486;46.738;7.622;2023-05-21T02:27:00;94759.66;;;13.72;65.96
30744;BME280;17486;46.738;7.622;2023-05-21T02:29:27;94764.03;;;13.71;65.85
30744;BME280;17486;46.738;7.622;2023-05-21T02:31:52;94758.81;;;13.71;65.68
30744;BME280;17486;46.738;7.622;2023-05-21T02:34:18;94751.31;;;13.67;65.65
30744;BME280;17486;46.738;7.622;2023-05-21T02:36:45;94742.31;;;13.58;66.04
30744;BME280;17486;46.738;7.622;2023-05-21T02:39:13;94758.09;;;13.69;65.70
30744;BME280;17486;46.738;7.622;2023-05-21T02:41:39;94753.81;;;13.68;65.87
30744;BME280;17486;46.738;7.622;2023-05-21T02:44:04;94758.09;;;13.69;65.58
30744;BME280;17486;46.738;7.622;2023-05-21T02:46:30;94752.03;;;13.69;65.83
30744;BME280;17486;46.738;7.622;2023-05-21T02:48:55;94755.69;;;13.66;65.67
30744;BME280;17486;46.738;7.622;2023-05-21T02:51:21;94748.41;;;13.58;65.44
30744;BME280;17486;46.738;7.622;2023-05-21T02:53:46;94730.31;;;13.42;65.75
30744;BME280;17486;46.738;7.622;2023-05-21T02:56:12;94753.94;;;13.54;65.85
30744;BME280;17486;46.738;7.622;2023-05-21T02:58:37;94759.47;;;13.49;66.17
30744;BME280;17486;46.738;7.622;2023-05-21T03:01:03;94750.19;;;13.45;65.95
30744;BME280;17486;46.738;7.622;2023-05-21T03:03:28;94753.00;;;13.42;66.13
30744;BME280;17486;46.738;7.622;2023-05-21T03:05:53;94756.56;;;13.41;66.13
30744;BME280;17486;46.738;7.622;2023-05-21T03:08:19;94750.50;;;13.40;66.13
30744;BME280;17486;46.738;7.622;2023-05-21T03:10:44;94732.91;;;13.30;66.17
30744;BME280;17486;46.738;7.622;2023-05-21T03:13:09;94751.81;;;13.33;66.25
30744;BME280;17486;46.738;7.622;2023-05-21T03:15:35;94756.09;;;13.21;66.58
30744;BME280;17486;46.738;7.622;2023-05-21T03:18:02;94749.00;;;13.10;66.67
30744;BME280;17486;46.738;7.622;2023-05-21T03:20:28;94747.13;;;13.00;67.19
30744;BME280;17486;46.738;7.622;2023-05-21T03:22:53;94739.19;;;12.88;66.77
30744;BME280;17486;46.738;7.622;2023-05-21T03:25:19;94745.22;;;12.89;66.93
30744;BME280;17486;46.738;7.622;2023-05-21T03:27:46;94758.28;;;13.02;66.99
30744;BME280;17486;46.738;7.622;2023-05-21T03:30:11;94751.22;;;13.04;67.23
30744;BME280;17486;46.738;7.622;2023-05-21T03:32:37;94748.72;;;13.02;67.14
30744;BME280;17486;46.738;7.622;2023-05-21T03:35:05;94741.06;;;12.99;66.86
30744;BME280;17486;46.738;7.622;2023-05-21T03:37:31;94757.56;;;13.13;66.73
30744;BME280;17486;46.738;7.622;2023-05-21T03:39:56;94753.31;;;13.12;66.46
30744;BME280;17486;46.738;7.622;2023-05-21T03:42:22;94761.13;;;13.12;66.32
30744;BME280;17486;46.738;7.622;2023-05-21T03:44:47;94767.81;;;13.16;66.38
30744;BME280;17486;46.738;7.622;2023-05-21T03:47:12;94776.69;;;13.13;66.14
30744;BME280;17486;46.738;7.622;2023-05-21T03:49:38;94777.00;;;13.08;66.15
30744;BME280;17486;46.738;7.622;2023-05-21T03:52:03;94762.16;;;12.96;66.47
30744;BME280;17486;46.738;7.622;2023-05-21T03:54:29;94782.44;;;13.05;66.19
30744;BME280;17486;46.738;7.622;2023-05-21T03:56:54;94765.28;;;12.88;66.50
30744;BME280;17486;46.738;7.622;2023-05-21T03:59:20;94787.13;;;13.00;66.51
30744;BME280;17486;46.738;7.622;2023-05-21T04:01:45;94796.41;;;13.04;66.43
30744;BME280;17486;46.738;7.622;2023-05-21T04:04:11;94768.63;;;12.90;66.38
30744;BME280;17486;46.738;7.622;2023-05-21T04:06:36;94799.94;;;13.03;66.25
30744;BME280;17486;46.738;7.622;2023-05-21T04:09:02;94787.88;;;13.02;66.32
30744;BME280;17486;46.738;7.622;2023-05-21T04:11:28;94794.00;;;13.01;66.27
30744;BME280;17486;46.738;7.622;2023-05-21T04:13:55;94794.94;;;13.00;66.42
30744;BME280;17486;46.738;7.622;2023-05-21T04:16:20;94773.41;;;12.84;66.63
30744;BME280;17486;46.738;7.622;2023-05-21T04:18:46;94797.97;;;12.94;66.10
30744;BME280;17486;46.738;7.622;2023-05-21T04:21:12;94797.84;;;12.83;66.46
30744;BME280;17486;46.738;7.622;2023-05-21T04:23:37;94781.41;;;12.68;66.77
30744;BME280;17486;46.738;7.622;2023-05-21T04:26:02;94813.59;;;12.81;66.71
30744;BME280;17486;46.738;7.622;2023-05-21T04:28:28;94808.28;;;12.83;66.87
30744;BME280;17486;46.738;7.622;2023-05-21T04:30:54;94804.28;;;12.77;66.78
30744;BME280;17486;46.738;7.622;2023-05-21T04:33:21;94815.91;;;12.86;66.98
30744;BME280;17486;46.738;7.622;2023-05-21T04:35:49;94821.03;;;12.87;67.03
30744;BME280;17486;46.738;7.622;2023-05-21T04:38:15;94828.56;;;12.92;66.82
30744;BME280;17486;46.738;7.622;2023-05-21T04:40:45;94819.97;;;12.90;66.82
30744;BME280;17486;46.738;7.622;2023-05-21T04:43:11;94829.81;;;12.99;66.81
30744;BME280;17486;46.738;7.622;2023-05-21T04:45:36;94830.47;;;13.03;66.64
30744;BME280;17486;46.738;7.622;2023-05-21T04:48:02;94833.59;;;13.08;66.60
30744;BME280;17486;46.738;7.622;2023-05-21T04:50:27;94843.00;;;13.10;66.51
30744;BME280;17486;46.738;7.622;2023-05-21T04:52:55;94840.19;;;13.14;66.40
30744;BME280;17486;46.738;7.622;2023-05-21T04:55:20;94833.50;;;13.09;66.35
30744;BME280;17486;46.738;7.622;2023-05-21T04:57:46;94843.53;;;13.16;66.33
30744;BME280;17486;46.738;7.622;2023-05-21T05:00:12;94845.13;;;13.18;66.41
30744;BME280;17486;46.738;7.622;2023-05-21T05:02:38;94850.22;;;13.20;66.32
30744;BME280;17486;46.738;7.622;2023-05-21T05:05:03;94851.81;;;13.22;66.27
30744;BME280;17486;46.738;7.622;2023-05-21T05:07:29;94843.13;;;13.22;66.25
30744;BME280;17486;46.738;7.622;2023-05-21T05:09:54;94849.59;;;13.29;66.19
30744;BME280;17486;46.738;7.622;2023-05-21T05:12:20;94848.47;;;13.33;66.12
30744;BME280;17486;46.738;7.622;2023-05-21T05:14:45;94853.53;;;13.36;65.71
30744;BME280;17486;46.738;7.622;2023-05-21T05:17:10;94836.34;;;13.32;66.03
30744;BME280;17486;46.738;7.622;2023-05-21T05:19:38;94852.38;;;13.40;66.01
30744;BME280;17486;46.738;7.622;2023-05-21T05:22:04;94848.72;;;13.43;66.02
30744;BME280;17486;46.738;7.622;2023-05-21T05:24:29;94838.38;;;13.41;66.02
30744;BME280;17486;46.738;7.622;2023-05-21T05:26:55;94835.56;;;13.45;66.01
30744;BME280;17486;46.738;7.622;2023-05-21T05:29:20;94849.03;;;13.51;66.02
30744;BME280;17486;46.738;7.622;2023-05-21T05:31:45;94837.53;;;13.54;66.04
30744;BME280;17486;46.738;7.622;2023-05-21T05:34:11;94814.66;;;13.45;65.92
30744;BME280;17486;46.738;7.622;2023-05-21T05:36:36;94848.13;;;13.65;65.92
30744;BME280;17486;46.738;7.622;2023-05-21T05:39:01;94834.81;;;13.68;66.02
30744;BME280;17486;46.738;7.622;2023-05-21T05:41:27;94826.78;;;13.58;65.85
30744;BME280;17486;46.738;7.622;2023-05-21T05:43:52;94844.41;;;13.81;65.66
30744;BME280;17486;46.738;7.622;2023-05-21T05:46:18;94825.19;;;13.82;65.60
30744;BME280;17486;46.738;7.622;2023-05-21T05:48:43;94821.53;;;13.84;65.69
30744;BME280;17486;46.738;7.622;2023-05-21T05:51:08;94826.34;;;13.90;65.51
30744;BME280;17486;46.738;7.622;2023-05-21T05:53:36;94831.03;;;13.98;65.41
30744;BME280;17486;46.738;7.622;2023-05-21T05:56:02;94829.13;;;14.00;64.96
30744;BME280;17486;46.738;7.622;2023-05-21T05:58:28;94831.56;;;14.03;65.00
30744;BME280;17486;46.738;7.622;2023-05-21T06:00:54;94826.94;;;14.07;64.97
30744;BME280;17486;46.738;7.622;2023-05-21T06:03:19;94833.72;;;14.09;65.09
30744;BME280;17486;46.738;7.622;2023-05-21T06:05:45;94831.72;;;14.13;64.96
30744;BME280;17486;46.738;7.622;2023-05-21T06:08:10;94836.75;;;14.16;64.98
30744;BME280;17486;46.738;7.622;2023-05-21T06:10:36;94834.03;;;14.18;64.62
30744;BME280;17486;46.738;7.622;2023-05-21T06:13:01;94822.81;;;14.16;64.51
30744;BME280;17486;46.738;7.622;2023-05-21T06:15:27;94835.59;;;14.20;64.74
30744;BME280;17486;46.738;7.622;2023-05-21T06:17:52;94821.88;;;14.17;64.63
30744;BME280;17486;46.738;7.622;2023-05-21T06:20:17;94837.88;;;14.25;64.55
30744;BME280;17486;46.738;7.622;2023-05-21T06:22:43;94825.66;;;14.25;64.60
30744;BME280;17486;46.738;7.622;2023-05-21T06:25:08;94840.78;;;14.33;64.00
30744;BME280;17486;46.738;7.622;2023-05-21T06:27:34;94835.88;;;14.29;64.60
30744;BME280;17486;46.738;7.622;2023-05-21T06:30:00;94819.34;;;14.28;64.34
30744;BME280;17486;46.738;7.622;2023-05-21T06:32:25;94833.66;;;14.35;64.59
30744;BME280;17486;46.738;7.622;2023-05-21T06:34:51;94828.09;;;14.40;64.17
30744;BME280;17486;46.738;7.622;2023-05-21T06:37:19;94842.59;;;14.57;64.55
30744;BME280;17486;46.738;7.622;2023-05-21T06:39:47;94840.28;;;14.65;64.08
30744;BME280;17486;46.738;7.622;2023-05-21T06:42:13;94840.91;;;14.69;64.21
30744;BME280;17486;46.738;7.622;2023-05-21T06:44:38;94819.63;;;14.60;63.96
30744;BME280;17486;46.738;7.622;2023-05-21T06:47:04;94839.13;;;14.69;63.74
30744;BME280;17486;46.738;7.622;2023-05-21T06:49:29;94828.41;;;14.72;64.46
30744;BME280;17486;46.738;7.622;2023-05-21T06:51:54;94832.16;;;14.81;64.23
30744;BME280;17486;46.738;7.622;2023-05-21T06:54:20;94808.09;;;14.76;63.58
30744;BME280;17486;46.738;7.622;2023-05-21T06:56:45;94840.44;;;14.99;63.63
30744;BME280;17486;46.738;7.622;2023-05-21T06:59:11;94834.53;;;15.08;63.11
30744;BME280;17486;46.738;7.622;2023-05-21T07:01:36;94833.13;;;15.16;62.88
30744;BME280;17486;46.738;7.622;2023-05-21T07:04:01;94831.09;;;15.19;62.14
30744;BME280;17486;46.738;7.622;2023-05-21T07:06:27;94827.41;;;15.22;62.46
30744;BME280;17486;46.738;7.622;2023-05-21T07:08:52;94828.84;;;15.26;62.16
30744;BME280;17486;46.738;7.622;2023-05-21T07:11:17;94822.53;;;15.29;62.33
30744;BME280;17486;46.738;7.622;2023-05-21T07:13:43;94819.13;;;15.39;62.34
30744;BME280;17486;46.738;7.622;2023-05-21T07:16:08;94806.84;;;15.40;62.44
30744;BME280;17486;46.738;7.622;2023-05-21T07:18:33;94809.88;;;15.58;62.24
30744;BME280;17486;46.738;7.622;2023-05-21T07:20:59;94813.94;;;15.73;61.92
30744;BME280;17486;46.738;7.622;2023-05-21T07:23:25;94811.06;;;15.77;61.65
30744;BME280;17486;46.738;7.622;2023-05-21T07:25:50;94821.09;;;15.94;61.75
30744;BME280;17486;46.738;7.622;2023-05-21T07:28:15;94816.59;;;16.07;61.28
30744;BME280;17486;46.738;7.622;2023-05-21T07:30:41;94815.59;;;16.20;61.18
30744;BME280;17486;46.738;7.622;2023-05-21T07:33:06;94818.91;;;16.33;61.06
30744;BME280;17486;46.738;7.622;2023-05-21T07:35:32;94788.38;;;16.32;60.67
30744;BME280;17486;46.738;7.622;2023-05-21T07:37:57;94805.25;;;16.62;59.94
30744;BME280;17486;46.738;7.622;2023-05-21T07:40:22;94800.09;;;16.72;59.52
30744;BME280;17486;46.738;7.622;2023-05-21T07:42:48;94791.38;;;16.71;60.49
30744;BME280;17486;46.738;7.622;2023-05-21T07:45:13;94808.63;;;16.97;61.04
30744;BME280;17486;46.738;7.622;2023-05-21T07:47:38;94807.34;;;17.12;62.76
30744;BME280;17486;46.738;7.622;2023-05-21T07:50:04;94795.00;;;17.24;61.53
30744;BME280;17486;46.738;7.622;2023-05-21T07:52:30;94807.13;;;17.36;60.56
30744;BME280;17486;46.738;7.622;2023-05-21T07:54:55;94796.53;;;17.48;61.01
30744;BME280;17486;46.738;7.622;2023-05-21T07:57:20;94794.09;;;17.56;60.40
30744;BME280;17486;46.738;7.622;2023-05-21T07:59:47;94786.06;;;17.57;59.64
30744;BME280;17486;46.738;7.622;2023-05-21T08:02:13;94791.69;;;17.74;60.79
30744;BME280;17486;46.738;7.622;2023-05-21T08:04:38;94805.59;;;17.86;59.91
30744;BME280;17486;46.738;7.622;2023-05-21T08:07:04;94786.06;;;17.88;60.21
30744;BME280;17486;46.738;7.622;2023-05-21T08:09:30;94797.09;;;18.03;59.74
30744;BME280;17486;46.738;7.622;2023-05-21T08:11:56;94789.19;;;18.03;57.80
30744;BME280;17486;46.738;7.622;2023-05-21T08:14:21;94796.44;;;18.11;56.72
30744;BME280;17486;46.738;7.622;2023-05-21T08:16:47;94803.22;;;18.14;56.42
30744;BME280;17486;46.738;7.622;2023-05-21T08:19:12;94798.53;;;18.17;55.90
30744;BME280;17486;46.738;7.622;2023-05-21T08:21:37;94794.66;;;18.21;56.16
30744;BME280;17486;46.738;7.622;2023-05-21T08:24:03;94809.38;;;18.34;55.76
30744;BME280;17486;46.738;7.622;2023-05-21T08:26:28;94779.88;;;18.30;55.08
30744;BME280;17486;46.738;7.622;2023-05-21T08:28:54;94807.34;;;18.57;55.40
30744;BME280;17486;46.738;7.622;2023-05-21T08:31:19;94806.09;;;18.61;54.89
30744;BME280;17486;46.738;7.622;2023-05-21T08:33:52;94807.09;;;18.70;54.21
30744;BME280;17486;46.738;7.622;2023-05-21T08:36:18;94801.69;;;18.71;54.05
30744;BME280;17486;46.738;7.622;2023-05-21T08:38:44;94781.44;;;18.62;54.05
30744;BME280;17486;46.738;7.622;2023-05-21T08:41:10;94805.03;;;18.73;53.77
30744;BME280;17486;46.738;7.622;2023-05-21T08:43:36;94785.59;;;18.65;53.11
30744;BME280;17486;46.738;7.622;2023-05-21T08:46:03;94788.50;;;18.71;53.49
30744;BME280;17486;46.738;7.622;2023-05-21T08:48:30;94797.25;;;18.72;54.04
30744;BME280;17486;46.738;7.622;2023-05-21T08:50:55;94803.94;;;18.76;54.18
30744;BME280;17486;46.738;7.622;2023-05-21T08:53:22;94783.53;;;18.68;54.06
30744;BME280;17486;46.738;7.622;2023-05-21T08:55:50;94796.72;;;18.88;54.29
30744;BME280;17486;46.738;7.622;2023-05-21T08:58:17;94805.75;;;18.95;54.27
30744;BME280;17486;46.738;7.622;2023-05-21T09:00:42;94780.66;;;18.91;53.97
30744;BME280;17486;46.738;7.622;2023-05-21T09:03:09;94800.34;;;19.07;53.20
30744;BME280;17486;46.738;7.622;2023-05-21T09:05:44;94801.03;;;19.18;53.11
30744;BME280;17486;46.738;7.622;2023-05-21T09:08:18;94778.97;;;19.19;53.09
30744;BME280;17486;46.738;7.622;2023-05-21T09:10:50;94794.44;;;19.52;53.53
30744;BME280;17486;46.738;7.622;2023-05-21T09:13:16;94802.06;;;19.75;53.04
30744;BME280;17486;46.738;7.622;2023-05-21T09:15:46;94783.00;;;19.81;52.91
30744;BME280;17486;46.738;7.622;2023-05-21T09:18:11;94794.66;;;19.88;52.51
30744;BME280;17486;46.738;7.622;2023-05-21T09:20:37;94794.53;;;19.90;52.87
30744;BME280;17486;46.738;7.622;2023-05-21T09:23:04;94775.22;;;19.79;53.10
30744;BME280;17486;46.738;7.622;2023-05-21T09:25:31;94799.06;;;19.97;53.39
30744;BME280;17486;46.738;7.622;2023-05-21T09:27:57;94789.88;;;20.01;53.27
30744;BME280;17486;46.738;7.622;2023-05-21T09:30:23;94791.97;;;20.08;53.20
30744;BME280;17486;46.738;7.622;2023-05-21T09:32:57;94785.41;;;20.12;53.09
30744;BME280;17486;46.738;7.622;2023-05-21T09:35:23;94791.78;;;20.19;53.28
30744;BME280;17486;46.738;7.622;2023-05-21T09:37:49;94782.28;;;20.26;53.39
30744;BME280;17486;46.738;7.622;2023-05-21T09:40:17;94779.59;;;20.36;52.73
30744;BME280;17486;46.738;7.622;2023-05-21T09:42:50;94778.16;;;20.42;53.22
30744;BME280;17486;46.738;7.622;2023-05-21T09:45:24;94778.25;;;20.50;53.15
30744;BME280;17486;46.738;7.622;2023-05-21T09:47:51;94772.22;;;20.58;52.51
30744;BME280;17486;46.738;7.622;2023-05-21T09:50:22;94775.34;;;20.71;52.37
30744;BME280;17486;46.738;7.622;2023-05-21T09:52:49;94755.59;;;20.75;51.51
30744;BME280;17486;46.738;7.622;2023-05-21T09:55:21;94782.69;;;21.13;50.98
30744;BME280;17486;46.738;7.622;2023-05-21T09:57:48;94781.41;;;21.17;50.23
30744;BME280;17486;46.738;7.622;2023-05-21T10:00:18;94781.22;;;21.19;49.70
30744;BME280;17486;46.738;7.622;2023-05-21T10:02:44;94776.91;;;21.18;50.00
30744;BME280;17486;46.738;7.622;2023-05-21T10:05:14;94765.31;;;21.11;49.73
30744;BME280;17486;46.738;7.622;2023-05-21T10:07:51;94777.25;;;21.15;49.40
30744;BME280;17486;46.738;7.622;2023-05-21T10:10:20;94778.28;;;21.22;49.65
30744;BME280;17486;46.738;7.622;2023-05-21T10:12:51;94780.25;;;21.20;50.08
30744;BME280;17486;46.738;7.622;2023-05-21T10:15:21;94778.34;;;21.30;50.09
30744;BME280;17486;46.738;7.622;2023-05-21T10:17:48;94769.56;;;21.30;50.26
30744;BME280;17486;46.738;7.622;2023-05-21T10:20:14;94777.28;;;21.41;50.34
30744;BME280;17486;46.738;7.622;2023-05-21T10:22:40;94775.00;;;21.46;49.87
30744;BME280;17486;46.738;7.622;2023-05-21T10:25:07;94763.56;;;21.46;49.86
30744;BME280;17486;46.738;7.622;2023-05-21T10:27:34;94764.69;;;21.61;49.32
30744;BME280;17486;46.738;7.622;2023-05-21T10:30:00;94759.84;;;21.75;49.08
30744;BME280;17486;46.738;7.622;2023-05-21T10:32:26;94758.28;;;21.98;48.33
30744;BME280;17486;46.738;7.622;2023-05-21T10:34:52;94753.72;;;22.17;46.69
30744;BME280;17486;46.738;7.622;2023-05-21T10:37:24;94750.78;;;22.28;46.70
30744;BME280;17486;46.738;7.622;2023-05-21T10:39:55;94748.34;;;22.35;46.18
30744;BME280;17486;46.738;7.622;2023-05-21T10:45:11;94755.81;;;22.40;44.61
30744;BME280;17486;46.738;7.622;2023-05-21T10:53:15;94726.63;;;22.31;44.60
30744;BME280;17486;46.738;7.622;2023-05-21T11:01:35;94741.28;;;22.60;45.95
30744;BME280;17486;46.738;7.622;2023-05-21T11:04:03;94731.34;;;22.54;45.95
30744;BME280;17486;46.738;7.622;2023-05-21T11:06:29;94745.94;;;22.66;45.93
30744;BME280;17486;46.738;7.622;2023-05-21T11:08:55;94736.97;;;22.67;45.75
30744;BME280;17486;46.738;7.622;2023-05-21T11:11:42;94741.81;;;22.89;45.48
30744;BME280;17486;46.738;7.622;2023-05-21T11:17:01;94731.22;;;23.05;45.36
30744;BME280;17486;46.738;7.622;2023-05-21T11:19:41;94739.19;;;23.05;45.24
30744;BME280;17486;46.738;7.622;2023-05-21T11:22:24;94712.63;;;22.89;45.18
30744;BME280;17486;46.738;7.622;2023-05-21T11:24:51;94740.31;;;23.11;45.26
30744;BME280;17486;46.738;7.622;2023-05-21T11:27:55;94738.03;;;23.16;45.65
30744;BME280;17486;46.738;7.622;2023-05-21T11:30:28;94729.94;;;23.26;44.33
30744;BME280;17486;46.738;7.622;2023-05-21T11:35:58;94740.53;;;23.34;44.02
30744;BME280;17486;46.738;7.622;2023-05-21T11:38:29;94738.03;;;23.41;43.47
30744;BME280;17486;46.738;7.622;2023-05-21T11:41:00;94734.38;;;23.42;43.58
30744;BME280;17486;46.738;7.622;2023-05-21T11:43:27;94729.53;;;23.54;43.65
30744;BME280;17486;46.738;7.622;2023-05-21T11:45:52;94738.66;;;23.67;43.36
30744;BME280;17486;46.738;7.622;2023-05-21T11:48:20;94722.03;;;23.74;42.51
30744;BME280;17486;46.738;7.622;2023-05-21T11:50:48;94726.34;;;23.91;42.42
30744;BME280;17486;46.738;7.622;2023-05-21T11:53:13;94732.72;;;24.05;41.84
30744;BME280;17486;46.738;7.622;2023-05-21T11:55:39;94737.53;;;24.10;40.75
30744;BME280;17486;46.738;7.622;2023-05-21T11:58:12;94732.59;;;24.07;40.40
30744;BME280;17486;46.738;7.622;2023-05-21T12:00:38;94727.59;;;24.04;40.88
30744;BME280;17486;46.738;7.622;2023-05-21T12:03:04;94730.88;;;24.14;41.97
30744;BME280;17486;46.738;7.622;2023-05-21T12:05:43;94729.56;;;24.10;42.66
30744;BME280;17486;46.738;7.622;2023-05-21T12:08:08;94737.53;;;24.10;43.11
30744;BME280;17486;46.738;7.622;2023-05-21T12:10:36;94724.50;;;23.92;41.65
30744;BME280;17486;46.738;7.622;2023-05-21T12:13:03;94739.22;;;24.03;43.41
30744;BME280;17486;46.738;7.622;2023-05-21T12:15:29;94722.69;;;23.92;43.86
30744;BME280;17486;46.738;7.622;2023-05-21T12:17:54;94732.59;;;23.98;43.17
30744;BME280;17486;46.738;7.622;2023-05-21T12:20:20;94738.38;;;24.10;43.36
30744;BME280;17486;46.738;7.622;2023-05-21T12:22:48;94735.34;;;24.22;42.96
30744;BME280;17486;46.738;7.622;2023-05-21T12:25:13;94728.50;;;24.27;41.23
30744;BME280;17486;46.738;7.622;2023-05-21T12:27:39;94724.16;;;24.34;40.21
30744;BME280;17486;46.738;7.622;2023-05-21T12:30:06;94733.78;;;24.36;40.94
30744;BME280;17486;46.738;7.622;2023-05-21T12:32:32;94727.44;;;24.37;40.36
30744;BME280;17486;46.738;7.622;2023-05-21T12:34:57;94728.78;;;24.41;41.59
30744;BME280;17486;46.738;7.622;2023-05-21T12:37:25;94728.94;;;24.39;41.22
30744;BME280;17486;46.738;7.622;2023-05-21T12:39:52;94737.25;;;24.36;42.27
30744;BME280;17486;46.738;7.622;2023-05-21T12:42:28;94735.41;;;24.37;42.04
30744;BME280;17486;46.738;7.622;2023-05-21T12:44:55;94733.28;;;24.32;41.83
30744;BME280;17486;46.738;7.622;2023-05-21T12:47:25;94725.16;;;24.33;42.67
30744;BME280;17486;46.738;7.622;2023-05-21T12:49:56;94732.44;;;24.40;42.66
30744;BME280;17486;46.738;7.622;2023-05-21T12:52:25;94708.38;;;24.33;42.06
30744;BME280;17486;46.738;7.622;2023-05-21T12:54:55;94709.56;;;24.30;40.73
30744;BME280;17486;46.738;7.622;2023-05-21T12:57:22;94726.50;;;24.29;40.62
30744;BME280;17486;46.738;7.622;2023-05-21T12:59:58;94698.72;;;24.00;40.92
30744;BME280;17486;46.738;7.622;2023-05-21T13:02:26;94729.88;;;24.15;42.35
30744;BME280;17486;46.738;7.622;2023-05-21T13:04:57;94731.88;;;24.13;42.39
30744;BME280;17486;46.738;7.622;2023-05-21T13:07:24;94710.34;;;23.99;41.44
30744;BME280;17486;46.738;7.622;2023-05-21T13:09:51;94730.88;;;24.14;42.70
30744;BME280;17486;46.738;7.622;2023-05-21T13:12:21;94723.59;;;24.16;42.80
30744;BME280;17486;46.738;7.622;2023-05-21T13:14:48;94709.00;;;24.12;41.47
30744;BME280;17486;46.738;7.622;2023-05-21T13:17:14;94726.44;;;24.38;41.76
30744;BME280;17486;46.738;7.622;2023-05-21T13:19:39;94710.00;;;24.42;41.26
30744;BME280;17486;46.738;7.622;2023-05-21T13:22:05;94720.94;;;24.79;40.82